createdAt,value
2018-08-23T00:01:41.926Z,21.75
2018-08-23T00:04:12.614Z,23.25
2018-08-23T00:06:59.774Z,23.25
2018-08-23T00:09:31.687Z,22.75
2018-08-23T00:12:01.974Z,24.00
2018-08-23T00:14:32.328Z,23.00
2018-08-23T00:17:03.585Z,24.50
2018-08-23T00:19:34.474Z,23.25
2018-08-23T00:22:06.334Z,24.00
2018-08-23T00:24:36.327Z,22.75
2018-08-23T00:27:34.976Z,24.00
2018-08-23T00:30:10.538Z,23.25
2018-08-23T00:32:40.579Z,24.75
2018-08-23T00:35:14.555Z,24.50
2018-08-23T00:37:44.823Z,23.50
2018-08-23T00:40:15.435Z,24.50
2018-08-23T00:43:19.894Z,25.25
2018-08-23T00:45:49.824Z,23.00
2018-08-23T00:48:21.754Z,23.50
2018-08-23T00:50:59.448Z,24.00
2018-08-23T00:53:32.604Z,24.00
2018-08-23T00:56:22.185Z,24.00
2018-08-23T00:59:06.483Z,23.50
2018-08-23T01:01:36.277Z,23.00
2018-08-23T01:04:05.776Z,24.00
2018-08-23T01:06:43.837Z,23.50
2018-08-23T01:09:14.322Z,24.00
2018-08-23T01:11:47.452Z,25.50
2018-08-23T01:14:18.107Z,23.50
2018-08-23T01:20:09.715Z,23.75
2018-08-23T01:22:48.580Z,23.00
2018-08-23T01:25:18.887Z,22.75
2018-08-23T01:27:48.315Z,22.75
2018-08-23T01:30:18.247Z,23.25
2018-08-23T01:32:48.744Z,23.75
2018-08-23T01:35:19.499Z,24.00
2018-08-23T01:37:49.295Z,24.00
2018-08-23T01:40:20.554Z,24.50
2018-08-23T01:42:49.926Z,25.50
2018-08-23T01:45:22.622Z,24.00
2018-08-23T01:47:54.237Z,23.75
2018-08-23T01:50:23.996Z,23.50
2018-08-23T01:52:54.788Z,24.00
2018-08-23T01:55:25.132Z,22.75
2018-08-23T01:57:54.989Z,24.00
2018-08-23T02:00:31.174Z,24.00
2018-08-23T02:03:02.336Z,26.00
2018-08-23T02:05:34.048Z,25.75
2018-08-23T02:08:04.639Z,24.00
2018-08-23T02:10:34.180Z,24.25
2018-08-23T02:13:05.536Z,22.25
2018-08-23T02:15:42.406Z,23.50
2018-08-23T02:18:11.857Z,23.75
2018-08-23T02:20:43.439Z,23.75
2018-08-23T02:23:13.212Z,25.25
2018-08-23T02:25:44.649Z,23.00
2018-08-23T02:28:13.857Z,24.00
2018-08-23T02:30:54.350Z,20.25
2018-08-23T02:33:24.403Z,24.25
2018-08-23T02:36:23.211Z,23.75
2018-08-23T02:38:56.696Z,25.75
2018-08-23T02:41:26.253Z,23.00
2018-08-23T02:43:57.927Z,22.75
2018-08-23T02:46:27.808Z,24.75
2018-08-23T02:48:57.684Z,24.00
2018-08-23T02:51:38.682Z,25.50
2018-08-23T02:54:15.902Z,25.50
2018-08-23T02:56:51.688Z,24.75
2018-08-23T02:59:21.370Z,24.75
2018-08-23T03:01:51.390Z,24.50
2018-08-23T03:04:26.292Z,24.50
2018-08-23T03:07:01.045Z,23.75
2018-08-23T03:09:39.369Z,24.75
2018-08-23T03:12:16.447Z,25.25
2018-08-23T03:14:46.045Z,23.75
2018-08-23T03:17:24.418Z,24.75
2018-08-23T03:20:03.890Z,25.00
2018-08-23T03:22:34.103Z,24.75
2018-08-23T03:25:12.799Z,24.25
2018-08-23T03:28:25.352Z,24.00
2018-08-23T03:31:00.255Z,24.75
2018-08-23T03:33:30.951Z,24.75
2018-08-23T03:36:01.095Z,23.00
2018-08-23T03:38:30.852Z,24.00
2018-08-23T03:41:00.185Z,25.75
2018-08-23T03:43:31.045Z,25.50
2018-08-23T03:46:01.296Z,24.75
2018-08-23T03:48:30.903Z,25.25
2018-08-23T03:51:02.397Z,25.00
2018-08-23T03:53:47.327Z,24.00
2018-08-23T03:56:18.154Z,24.00
2018-08-23T03:58:52.166Z,25.00
2018-08-23T04:01:22.353Z,27.25
2018-08-23T04:03:52.161Z,24.50
2018-08-23T04:06:38.175Z,24.75
2018-08-23T04:09:09.785Z,25.00
2018-08-23T04:11:39.707Z,24.00
2018-08-23T04:14:14.348Z,24.50
2018-08-23T04:16:53.192Z,26.50
2018-08-23T04:19:22.816Z,27.50
2018-08-23T04:21:52.697Z,24.00
2018-08-23T04:24:22.191Z,25.75
2018-08-23T04:26:51.737Z,26.50
2018-08-23T04:29:33.709Z,27.50
2018-08-23T04:34:46.909Z,25.75
2018-08-23T04:37:16.525Z,25.50
2018-08-23T04:39:50.923Z,27.75
2018-08-23T04:42:20.736Z,26.25
2018-08-23T04:44:52.373Z,25.25
2018-08-23T04:47:23.492Z,26.75
2018-08-23T04:49:53.430Z,26.00
2018-08-23T04:52:23.248Z,25.25
2018-08-23T04:54:52.633Z,25.25
2018-08-23T04:57:22.860Z,25.25
2018-08-23T04:59:53.303Z,25.75
2018-08-23T05:02:23.823Z,26.25
2018-08-23T05:04:55.048Z,25.25
2018-08-23T05:07:25.845Z,25.50
2018-08-23T05:09:55.863Z,27.00
2018-08-23T05:12:26.520Z,27.00
2018-08-23T05:14:58.760Z,27.25
2018-08-23T05:17:28.689Z,26.25
2018-08-23T05:19:58.613Z,28.25
2018-08-23T05:22:28.470Z,27.00
2018-08-23T05:25:05.204Z,26.50
2018-08-23T05:27:44.908Z,26.00
2018-08-23T05:30:16.916Z,26.50
2018-08-23T05:32:47.696Z,26.25
2018-08-23T05:35:17.310Z,26.00
2018-08-23T05:37:47.665Z,27.00
2018-08-23T05:40:19.121Z,27.50
2018-08-23T05:42:55.650Z,28.00
2018-08-23T05:45:35.771Z,26.75
2018-08-23T05:48:16.221Z,28.00
2018-08-23T05:50:46.899Z,25.50
2018-08-23T05:53:20.448Z,27.25
2018-08-23T05:55:52.360Z,27.75
2018-08-23T05:58:24.619Z,28.50
2018-08-23T06:00:54.600Z,27.75
2018-08-23T06:03:25.002Z,28.00
2018-08-23T06:05:56.123Z,26.50
2018-08-23T06:08:26.793Z,28.25
2018-08-23T06:10:59.039Z,27.50
2018-08-23T06:13:30.959Z,27.50
2018-08-23T06:16:00.716Z,25.25
2018-08-23T06:18:30.602Z,26.25
2018-08-23T06:21:02.941Z,26.00
2018-08-23T06:24:37.347Z,27.50
2018-08-23T06:27:07.017Z,26.75
2018-08-23T06:29:53.685Z,26.75
2018-08-23T06:32:27.958Z,26.75
2018-08-23T06:35:06.363Z,27.00
2018-08-23T06:37:37.433Z,27.00
2018-08-23T06:40:07.890Z,26.00
2018-08-23T06:42:46.477Z,26.75
2018-08-23T06:45:18.266Z,27.75
2018-08-23T06:47:50.738Z,27.75
2018-08-23T06:50:24.032Z,27.00
2018-08-23T06:52:54.018Z,27.75
2018-08-23T06:55:34.560Z,28.00
2018-08-23T06:58:06.007Z,26.25
2018-08-23T07:00:35.800Z,27.25
2018-08-23T07:03:09.745Z,27.75
2018-08-23T07:05:39.325Z,28.25
2018-08-23T07:08:13.636Z,27.25
2018-08-23T07:10:56.851Z,28.25
2018-08-23T07:13:27.345Z,27.75
2018-08-23T07:16:00.791Z,26.75
2018-08-23T07:18:32.881Z,27.00
2018-08-23T07:21:07.579Z,28.00
2018-08-23T07:23:37.444Z,27.00
2018-08-23T07:26:07.218Z,27.75
2018-08-23T07:28:38.110Z,27.25
2018-08-23T07:31:10.748Z,26.75
2018-08-23T07:33:44.068Z,27.00
2018-08-23T07:36:30.538Z,27.00
2018-08-23T07:39:00.060Z,28.50
2018-08-23T07:41:31.414Z,29.00
2018-08-23T07:44:01.945Z,26.75
2018-08-23T07:46:31.815Z,27.00
2018-08-23T07:49:02.299Z,27.00
2018-08-23T07:51:33.736Z,27.00
2018-08-23T07:54:13.284Z,27.50
2018-08-23T07:56:45.200Z,28.25
2018-08-23T07:59:25.088Z,26.75
2018-08-23T08:04:44.969Z,26.75
2018-08-23T08:07:22.795Z,26.25
2018-08-23T08:09:55.681Z,26.50
2018-08-23T08:12:39.033Z,26.50
2018-08-23T08:15:18.072Z,26.00
2018-08-23T08:17:51.381Z,25.00
2018-08-23T08:20:22.709Z,27.00
2018-08-23T08:22:53.454Z,27.75
2018-08-23T08:25:29.179Z,23.75
2018-08-23T08:28:00.443Z,25.00
2018-08-23T08:30:43.546Z,26.00
2018-08-23T08:36:04.113Z,23.00
2018-08-23T08:38:36.203Z,25.00
2018-08-23T08:41:05.766Z,21.00
2018-08-23T08:43:37.421Z,24.00
2018-08-23T08:46:09.203Z,21.00
2018-08-23T08:48:38.681Z,22.00
2018-08-23T08:51:32.741Z,23.25
2018-08-23T08:54:07.505Z,23.00
2018-08-23T08:56:40.312Z,22.75
2018-08-23T08:59:11.293Z,23.00
2018-08-23T09:01:40.928Z,22.75
2018-08-23T09:04:24.615Z,23.75
2018-08-23T09:06:56.089Z,23.75
2018-08-23T09:09:35.494Z,23.00
2018-08-23T09:12:07.632Z,23.00
2018-08-23T09:14:41.806Z,22.50
2018-08-23T09:17:28.123Z,21.00
2018-08-23T09:20:37.474Z,20.50
2018-08-23T09:23:09.705Z,21.25
2018-08-23T09:25:49.547Z,19.00
2018-08-23T09:28:21.517Z,20.50
2018-08-23T09:30:51.808Z,19.50
2018-08-23T09:33:23.809Z,20.00
2018-08-23T09:35:57.773Z,19.00
2018-08-23T09:38:30.262Z,17.25
2018-08-23T09:41:01.680Z,18.75
2018-08-23T09:43:32.508Z,18.25
2018-08-23T09:46:07.921Z,15.75
2018-08-23T09:48:41.109Z,17.75
2018-08-23T09:51:48.054Z,14.25
2018-08-23T09:54:30.584Z,17.00
2018-08-23T09:57:21.616Z,15.00
2018-08-23T09:59:57.987Z,12.75
2018-08-23T10:02:42.577Z,14.00
2018-08-23T10:05:19.524Z,12.50
2018-08-23T10:07:56.147Z,13.25
2018-08-23T10:10:33.201Z,11.00
2018-08-23T10:13:08.965Z,13.25
2018-08-23T10:17:52.164Z,12.25
2018-08-23T10:20:26.489Z,12.50
2018-08-23T10:23:08.839Z,13.00
2018-08-23T10:25:44.141Z,14.25
2018-08-23T10:28:21.554Z,12.50
2018-08-23T10:30:53.334Z,12.50
2018-08-23T10:33:26.791Z,13.25
2018-08-23T10:36:00.013Z,13.50
2018-08-23T10:38:38.417Z,13.00
2018-08-23T10:41:08.048Z,11.00
2018-08-23T10:43:43.427Z,10.00
2018-08-23T10:46:14.411Z,10.50
2018-08-23T10:48:47.354Z,11.50
2018-08-23T10:51:20.399Z,11.50
2018-08-23T10:53:52.894Z,11.00
2018-08-23T10:56:26.779Z,11.25
2018-08-23T10:58:59.003Z,8.75
2018-08-23T11:01:29.328Z,7.75
2018-08-23T11:04:07.398Z,9.00
2018-08-23T11:06:42.911Z,9.00
2018-08-23T11:09:22.347Z,11.00
2018-08-23T11:14:55.980Z,11.50
2018-08-23T11:17:34.496Z,12.00
2018-08-23T11:20:28.436Z,11.75
2018-08-23T11:22:59.656Z,14.25
2018-08-23T11:25:36.465Z,9.50
2018-08-23T11:28:15.866Z,12.25
2018-08-23T11:30:50.457Z,8.50
2018-08-23T11:33:23.424Z,11.00
2018-08-23T11:36:16.048Z,9.50
2018-08-23T11:38:54.556Z,11.00
2018-08-23T11:41:28.066Z,10.50
2018-08-23T11:43:58.795Z,11.25
2018-08-23T11:46:36.470Z,9.25
2018-08-23T11:49:07.951Z,9.00
2018-08-23T11:51:45.503Z,10.50
2018-08-23T11:54:19.449Z,10.00
2018-08-23T11:56:50.237Z,9.75
2018-08-23T11:59:22.223Z,9.75
2018-08-23T12:01:58.019Z,8.00
2018-08-23T12:04:35.482Z,8.00
2018-08-23T12:07:05.096Z,9.00
2018-08-23T12:09:37.225Z,9.00
2018-08-23T12:12:09.225Z,7.50
2018-08-23T12:14:40.276Z,8.50
2018-08-23T12:17:14.927Z,11.75
2018-08-23T12:19:50.452Z,9.00
2018-08-23T12:22:23.665Z,9.50
2018-08-23T12:24:53.817Z,9.00
2018-08-23T12:27:23.347Z,7.75
2018-08-23T12:29:53.945Z,9.75
2018-08-23T12:32:27.137Z,8.00
2018-08-23T12:34:58.734Z,8.00
2018-08-23T12:37:33.681Z,11.00
2018-08-23T12:40:12.199Z,10.00
2018-08-23T12:42:55.708Z,8.75
2018-08-23T12:45:27.036Z,8.25
2018-08-23T12:48:00.475Z,10.00
2018-08-23T12:50:29.945Z,7.50
2018-08-23T12:53:03.134Z,9.00
2018-08-23T12:55:35.190Z,7.75
2018-08-23T12:58:10.654Z,11.00
2018-08-23T13:00:45.823Z,10.75
2018-08-23T13:03:19.545Z,8.00
2018-08-23T13:05:50.165Z,10.50
2018-08-23T13:08:19.631Z,7.75
2018-08-23T13:10:50.532Z,8.00
2018-08-23T13:13:22.094Z,8.75
2018-08-23T13:15:53.563Z,9.25
2018-08-23T13:18:27.901Z,8.00
2018-08-23T13:27:01.196Z,7.00
2018-08-23T13:29:34.880Z,9.50
2018-08-23T13:32:15.273Z,8.75
2018-08-23T13:34:44.995Z,10.50
2018-08-23T13:37:23.149Z,11.00
2018-08-23T13:39:54.442Z,10.25
2018-08-23T13:42:28.289Z,9.00
2018-08-23T13:45:07.210Z,10.00
2018-08-23T13:47:37.341Z,10.25
2018-08-23T13:50:10.363Z,8.25
2018-08-23T13:52:57.617Z,9.75
2018-08-23T13:55:36.506Z,11.50
2018-08-23T13:58:10.642Z,13.25
2018-08-23T14:00:54.583Z,8.00
2018-08-23T14:03:34.421Z,10.75
2018-08-23T14:06:19.863Z,10.00
2018-08-23T14:08:56.340Z,10.25
2018-08-23T14:11:30.565Z,10.75
2018-08-23T14:18:07.762Z,12.25
2018-08-23T14:20:38.789Z,11.00
2018-08-23T14:25:43.086Z,12.25
2018-08-23T14:28:13.735Z,11.25
2018-08-23T14:30:45.477Z,13.00
2018-08-23T14:33:18.623Z,9.75
2018-08-23T14:35:51.830Z,12.00
2018-08-23T14:38:21.835Z,10.75
2018-08-23T14:41:07.312Z,10.50
2018-08-23T14:43:36.695Z,12.00
2018-08-23T14:46:21.744Z,13.50
2018-08-23T14:48:53.504Z,11.00
2018-08-23T14:51:23.172Z,12.75
2018-08-23T14:53:52.644Z,11.00
2018-08-23T14:56:27.438Z,11.75
2018-08-23T14:58:59.427Z,12.00
2018-08-23T15:01:31.204Z,11.75
2018-08-23T15:04:13.758Z,12.00
2018-08-23T15:06:51.560Z,11.00
2018-08-23T15:09:26.329Z,10.00
2018-08-23T15:11:57.572Z,11.50
2018-08-23T15:14:27.505Z,11.00
2018-08-23T15:16:57.659Z,11.50
2018-08-23T15:19:33.177Z,10.50
2018-08-23T15:22:08.234Z,10.50
2018-08-23T15:24:39.312Z,12.50
2018-08-23T15:27:12.826Z,10.75
2018-08-23T15:29:45.556Z,12.00
2018-08-23T15:32:22.741Z,11.50
2018-08-23T15:34:54.433Z,10.00
2018-08-23T15:37:24.508Z,12.00
2018-08-23T15:40:06.665Z,12.50
2018-08-23T15:42:45.676Z,12.00
2018-08-23T15:45:17.815Z,10.00
2018-08-23T15:47:48.449Z,11.00
2018-08-23T15:50:19.402Z,10.00
2018-08-23T15:52:49.675Z,11.00
2018-08-23T15:55:20.915Z,11.25
2018-08-23T15:57:50.299Z,11.00
2018-08-23T16:00:36.788Z,10.00
2018-08-23T16:03:11.266Z,10.75
2018-08-23T16:05:41.241Z,9.75
2018-08-23T16:08:15.821Z,10.00
2018-08-23T16:10:46.009Z,10.25
2018-08-23T16:13:17.002Z,10.25
2018-08-23T16:15:48.501Z,10.25
2018-08-23T16:18:24.694Z,8.75
2018-08-23T16:21:03.389Z,12.00
2018-08-23T16:23:36.413Z,9.75
2018-08-23T16:26:07.667Z,9.00
2018-08-23T16:28:39.337Z,8.75
2018-08-23T16:31:10.855Z,8.00
2018-08-23T16:33:47.229Z,9.75
2018-08-23T16:36:21.650Z,8.00
2018-08-23T16:38:51.200Z,7.50
2018-08-23T16:44:25.070Z,7.50
2018-08-23T16:46:59.189Z,7.75
2018-08-23T16:49:31.379Z,6.50
2018-08-23T16:52:04.208Z,8.00
2018-08-23T16:54:35.104Z,9.00
2018-08-23T16:57:11.772Z,7.75
2018-08-23T16:59:45.714Z,7.75
2018-08-23T17:02:23.818Z,7.25
2018-08-23T17:04:59.540Z,7.75
2018-08-23T17:07:34.402Z,6.75
2018-08-23T17:10:07.550Z,11.00
2018-08-23T17:12:43.335Z,8.00
2018-08-23T17:15:19.466Z,7.25
2018-08-23T17:17:56.370Z,7.50
2018-08-23T17:20:31.338Z,7.00
2018-08-23T17:23:03.308Z,6.50
2018-08-23T17:25:34.751Z,7.50
2018-08-23T17:28:07.386Z,6.50
2018-08-23T17:30:39.391Z,7.00
2018-08-23T17:33:10.014Z,8.25
2018-08-23T17:35:41.719Z,9.00
2018-08-23T17:38:28.148Z,9.00
2018-08-23T17:43:43.433Z,8.75
2018-08-23T17:46:20.593Z,9.25
2018-08-23T17:48:51.628Z,8.75
2018-08-23T17:51:22.334Z,6.25
2018-08-23T17:53:53.674Z,8.00
2018-08-23T17:56:27.638Z,8.00
2018-08-23T17:59:01.516Z,8.00
2018-08-23T18:01:33.245Z,8.00
2018-08-23T18:04:04.313Z,7.00
2018-08-23T18:06:36.466Z,8.50
2018-08-23T18:09:11.110Z,8.00
2018-08-23T18:11:42.767Z,8.75
2018-08-23T18:14:15.436Z,7.25
2018-08-23T18:16:52.938Z,7.50
2018-08-23T18:19:23.057Z,8.50
2018-08-23T18:21:57.640Z,6.00
2018-08-23T18:24:30.052Z,7.00
2018-08-23T18:27:29.601Z,8.25
2018-08-23T18:30:04.011Z,7.25
2018-08-23T18:32:35.315Z,7.75
2018-08-23T18:35:06.505Z,7.75
2018-08-23T18:37:38.403Z,8.25
2018-08-23T18:40:08.416Z,6.75
2018-08-23T18:42:39.817Z,8.25
2018-08-23T18:47:47.153Z,7.75
2018-08-23T18:50:18.044Z,7.00
2018-08-23T18:52:49.272Z,6.00
2018-08-23T18:55:26.276Z,6.75
2018-08-23T18:57:59.629Z,6.00
2018-08-23T19:00:31.948Z,5.75
2018-08-23T19:03:11.515Z,6.25
2018-08-23T19:05:43.612Z,6.75
2018-08-23T19:08:29.040Z,7.25
2018-08-23T19:11:16.392Z,5.75
2018-08-23T19:13:51.303Z,5.75
2018-08-23T19:19:08.299Z,7.75
2018-08-23T19:21:38.729Z,6.00
2018-08-23T19:24:11.557Z,7.00
2018-08-23T19:26:48.951Z,5.00
2018-08-23T19:29:46.492Z,5.00
2018-08-23T19:32:19.542Z,7.00
2018-08-23T19:34:55.917Z,8.25
2018-08-23T19:37:28.285Z,8.50
2018-08-23T19:39:59.137Z,7.00
2018-08-23T19:42:28.790Z,6.25
2018-08-23T19:45:05.628Z,6.25
2018-08-23T19:47:44.584Z,5.75
2018-08-23T19:50:18.398Z,5.25
2018-08-23T19:52:52.478Z,5.50
2018-08-23T19:55:27.007Z,5.25
2018-08-23T19:57:58.528Z,4.25
2018-08-23T20:00:35.975Z,4.00
2018-08-23T20:03:07.420Z,5.50
2018-08-23T20:05:38.910Z,3.25
2018-08-23T20:08:09.471Z,5.00
2018-08-23T20:10:39.803Z,4.25
2018-08-23T20:13:14.806Z,5.00
2018-08-23T20:15:50.160Z,7.25
2018-08-23T20:18:23.286Z,3.75
2018-08-23T20:20:54.638Z,4.75
2018-08-23T20:23:29.644Z,5.25
2018-08-23T20:26:01.468Z,5.00
2018-08-23T20:28:34.836Z,5.75
2018-08-23T20:31:07.603Z,4.75
2018-08-23T20:33:49.470Z,4.25
2018-08-23T20:36:21.481Z,6.00
2018-08-23T20:38:56.411Z,5.75
2018-08-23T20:41:28.149Z,4.75
2018-08-23T20:43:59.000Z,5.75
2018-08-23T20:46:31.772Z,5.75
2018-08-23T20:49:04.241Z,5.25
2018-08-23T20:51:34.759Z,3.75
2018-08-23T20:54:07.566Z,5.25
2018-08-23T20:56:39.383Z,5.75
2018-08-23T20:59:11.295Z,6.75
2018-08-23T21:04:26.876Z,5.25
2018-08-23T21:07:04.027Z,6.25
2018-08-23T21:09:34.279Z,5.00
2018-08-23T21:14:56.569Z,5.00
2018-08-23T21:17:29.202Z,4.00
2018-08-23T21:20:01.244Z,5.00
2018-08-23T21:22:33.003Z,5.50
2018-08-23T21:27:47.091Z,5.00
2018-08-23T21:30:22.208Z,4.00
2018-08-23T21:32:53.226Z,4.00
2018-08-23T21:35:23.217Z,4.00
2018-08-23T21:37:52.549Z,4.00
2018-08-23T21:40:33.425Z,3.75
2018-08-23T21:43:03.544Z,4.00
2018-08-23T21:45:34.965Z,5.25
2018-08-23T21:48:11.412Z,3.50
2018-08-23T21:50:42.244Z,3.75
2018-08-23T21:53:11.907Z,4.00
2018-08-23T21:55:44.956Z,3.50
2018-08-23T21:58:15.996Z,4.00
2018-08-23T22:00:51.715Z,3.50
2018-08-23T22:03:21.567Z,4.00
2018-08-23T22:05:56.515Z,4.00
2018-08-23T22:08:27.719Z,3.25
2018-08-23T22:10:57.846Z,4.00
2018-08-23T22:13:27.727Z,3.00
2018-08-23T22:15:58.721Z,3.00
2018-08-23T22:18:29.782Z,3.25
2018-08-23T22:20:59.552Z,3.75
2018-08-23T22:23:29.744Z,3.00
2018-08-23T22:25:59.407Z,3.00
2018-08-23T22:28:29.052Z,3.00
2018-08-23T22:31:00.467Z,3.00
2018-08-23T22:33:31.685Z,2.75
2018-08-23T22:36:03.867Z,3.00
2018-08-23T22:38:33.494Z,2.25
2018-08-23T22:41:03.034Z,3.00
2018-08-23T22:43:32.725Z,3.00
2018-08-23T22:46:02.410Z,3.00
2018-08-23T22:48:32.283Z,2.00
2018-08-23T22:51:02.352Z,2.50
2018-08-23T22:53:31.848Z,3.00
2018-08-23T22:56:02.642Z,2.75
2018-08-23T22:58:32.630Z,2.00
2018-08-23T23:01:03.204Z,2.00
2018-08-23T23:03:38.681Z,3.50
2018-08-23T23:06:10.444Z,2.25
2018-08-23T23:08:40.816Z,3.00
2018-08-23T23:14:02.190Z,2.75
2018-08-23T23:17:58.491Z,3.00
2018-08-23T23:20:27.991Z,2.50
2018-08-23T23:23:00.622Z,3.00
2018-08-23T23:25:32.575Z,3.00
2018-08-23T23:28:02.816Z,2.50
2018-08-23T23:30:32.577Z,2.00
2018-08-23T23:33:04.641Z,3.00
2018-08-23T23:35:35.162Z,3.00
2018-08-23T23:38:05.833Z,2.50
2018-08-23T23:40:36.250Z,2.50
2018-08-23T23:43:06.789Z,2.00
2018-08-23T23:45:36.770Z,2.00
2018-08-23T23:48:07.279Z,2.50
2018-08-23T23:50:36.855Z,2.00
2018-08-23T23:53:07.779Z,2.75
2018-08-23T23:55:39.495Z,2.50
2018-08-23T23:58:09.016Z,3.75
